createdAt,value
2023-03-29T00:01:42.094Z,150.15
2023-03-29T00:04:10.168Z,148.15
2023-03-29T00:06:37.876Z,149.43
2023-03-29T00:09:06.035Z,166.77
2023-03-29T00:11:33.090Z,151.73
2023-03-29T00:14:01.336Z,150.52
2023-03-29T00:16:28.209Z,153.20
2023-03-29T00:18:55.419Z,151.65
2023-03-29T00:21:22.295Z,152.35
2023-03-29T00:23:49.098Z,153.35
2023-03-29T00:26:16.006Z,153.05
2023-03-29T00:28:42.804Z,152.35
2023-03-29T00:31:13.486Z,151.85
2023-03-29T00:33:41.484Z,153.00
2023-03-29T00:36:10.535Z,152.15
2023-03-29T00:38:38.145Z,150.48
2023-03-29T00:41:07.876Z,151.38
2023-03-29T00:43:56.622Z,151.68
2023-03-29T00:46:27.237Z,151.95
2023-03-29T00:48:57.907Z,152.13
2023-03-29T00:51:28.083Z,151.00
2023-03-29T00:53:59.052Z,153.07
2023-03-29T00:56:30.193Z,150.85
2023-03-29T00:59:02.264Z,151.25
2023-03-29T01:01:38.100Z,153.18
2023-03-29T01:04:09.863Z,151.75
2023-03-29T01:06:39.272Z,149.75
2023-03-29T01:09:10.355Z,153.68
2023-03-29T01:11:42.102Z,150.70
2023-03-29T01:14:15.347Z,150.63
2023-03-29T01:16:45.995Z,150.80
2023-03-29T01:19:19.082Z,150.82
2023-03-29T01:21:51.618Z,151.77
2023-03-29T01:24:42.044Z,157.15
2023-03-29T01:27:15.872Z,154.30
2023-03-29T01:29:48.958Z,152.68
2023-03-29T01:32:20.149Z,151.50
2023-03-29T01:34:51.840Z,148.52
2023-03-29T01:37:24.940Z,151.20
2023-03-29T01:39:52.779Z,152.07
2023-03-29T01:42:32.519Z,151.02
2023-03-29T01:45:10.203Z,153.25
2023-03-29T01:47:45.519Z,152.95
2023-03-29T01:50:17.740Z,150.18
2023-03-29T01:52:50.568Z,151.98
2023-03-29T01:55:23.069Z,149.55
2023-03-29T01:57:52.216Z,151.25
2023-03-29T02:00:24.869Z,152.13
2023-03-29T02:02:55.047Z,151.98
2023-03-29T02:05:24.537Z,154.45
2023-03-29T02:07:53.013Z,152.25
2023-03-29T02:10:21.685Z,155.10
2023-03-29T02:12:48.738Z,153.95
2023-03-29T02:15:21.527Z,153.43
2023-03-29T02:17:50.918Z,156.80
2023-03-29T02:20:22.545Z,155.63
2023-03-29T02:22:57.580Z,153.32
2023-03-29T02:25:26.047Z,154.43
2023-03-29T02:27:53.659Z,154.85
2023-03-29T02:30:21.409Z,158.48
2023-03-29T02:32:54.425Z,153.75
2023-03-29T02:35:27.862Z,156.68
2023-03-29T02:37:57.394Z,155.60
2023-03-29T02:40:26.145Z,158.82
2023-03-29T02:42:56.018Z,154.07
2023-03-29T02:45:25.637Z,159.00
2023-03-29T02:47:56.740Z,157.32
2023-03-29T02:50:25.638Z,156.77
2023-03-29T02:52:59.269Z,155.57
2023-03-29T02:55:34.631Z,162.57
2023-03-29T02:58:08.297Z,160.45
2023-03-29T03:00:38.350Z,157.98
2023-03-29T03:03:08.004Z,158.50
2023-03-29T03:05:36.079Z,160.13
2023-03-29T03:08:04.586Z,160.95
2023-03-29T03:10:33.265Z,158.77
2023-03-29T03:13:00.430Z,157.02
2023-03-29T03:15:31.117Z,162.75
2023-03-29T03:17:58.177Z,159.23
2023-03-29T03:20:26.621Z,157.18
2023-03-29T03:22:54.901Z,160.60
2023-03-29T03:25:21.799Z,159.63
2023-03-29T03:27:50.683Z,163.32
2023-03-29T03:30:21.049Z,160.55
2023-03-29T03:33:27.485Z,169.00
2023-03-29T03:36:29.154Z,160.98
2023-03-29T03:38:57.087Z,161.15
2023-03-29T03:41:26.158Z,163.63
2023-03-29T03:43:53.966Z,159.15
2023-03-29T03:46:21.678Z,158.40
2023-03-29T03:48:49.250Z,160.80
2023-03-29T03:51:21.472Z,159.18
2023-03-29T03:53:50.944Z,164.40
2023-03-29T03:56:35.766Z,160.15
2023-03-29T03:59:23.860Z,160.20
2023-03-29T04:02:00.497Z,159.68
2023-03-29T04:04:28.036Z,162.73
2023-03-29T04:07:13.080Z,159.13
2023-03-29T04:10:00.467Z,169.75
2023-03-29T04:12:40.098Z,160.33
2023-03-29T04:15:08.760Z,159.10
2023-03-29T04:17:36.920Z,160.50
2023-03-29T04:20:24.773Z,160.80
2023-03-29T04:22:52.028Z,159.05
2023-03-29T04:25:23.799Z,165.65
2023-03-29T04:28:16.526Z,159.48
2023-03-29T04:30:52.254Z,158.52
2023-03-29T04:33:29.402Z,158.18
2023-03-29T04:35:59.994Z,164.48
2023-03-29T04:38:26.984Z,163.30
2023-03-29T04:40:56.306Z,163.73
2023-03-29T04:43:40.371Z,158.75
2023-03-29T04:46:40.345Z,165.40
2023-03-29T04:49:26.262Z,164.82
2023-03-29T04:51:54.943Z,161.30
2023-03-29T04:57:02.204Z,161.38
2023-03-29T04:59:37.353Z,165.30
2023-03-29T05:02:14.479Z,163.73
2023-03-29T05:04:46.834Z,163.43
2023-03-29T05:07:17.661Z,162.07
2023-03-29T05:09:45.116Z,161.90
2023-03-29T05:12:14.361Z,165.10
2023-03-29T05:15:01.424Z,158.32
2023-03-29T05:17:29.124Z,163.32
2023-03-29T05:20:07.172Z,161.98
2023-03-29T05:22:34.342Z,160.45
2023-03-29T05:25:01.130Z,162.25
2023-03-29T05:27:29.883Z,162.57
2023-03-29T05:30:09.016Z,165.18
2023-03-29T05:33:05.866Z,166.82
2023-03-29T05:35:36.017Z,169.07
2023-03-29T05:38:06.465Z,163.20
2023-03-29T05:40:35.782Z,182.48
2023-03-29T05:43:20.970Z,168.60
2023-03-29T05:45:48.747Z,169.45
2023-03-29T05:48:15.695Z,166.48
2023-03-29T05:50:46.930Z,172.90
2023-03-29T05:53:13.809Z,167.43
2023-03-29T05:55:42.441Z,183.40
2023-03-29T05:58:12.986Z,168.05
2023-03-29T06:00:42.913Z,166.82
2023-03-29T06:03:33.679Z,167.52
2023-03-29T06:06:03.869Z,164.52
2023-03-29T06:08:32.881Z,163.32
2023-03-29T06:11:16.707Z,162.90
2023-03-29T06:14:02.455Z,165.45
2023-03-29T06:16:31.120Z,166.27
2023-03-29T06:18:58.238Z,167.80
2023-03-29T06:21:27.232Z,169.23
2023-03-29T06:23:54.674Z,166.00
2023-03-29T06:26:22.382Z,169.98
2023-03-29T06:28:52.059Z,165.82
2023-03-29T06:31:21.106Z,163.98
2023-03-29T06:33:52.201Z,169.73
2023-03-29T06:36:35.020Z,162.60
2023-03-29T06:39:08.498Z,162.80
2023-03-29T06:42:20.194Z,163.35
2023-03-29T06:45:07.699Z,164.68
2023-03-29T06:47:36.558Z,165.15
2023-03-29T06:50:05.896Z,168.07
2023-03-29T06:53:02.923Z,164.93
2023-03-29T06:55:31.622Z,166.32
2023-03-29T06:58:05.624Z,165.95
2023-03-29T07:00:35.778Z,165.40
2023-03-29T07:03:13.593Z,170.85
2023-03-29T07:05:42.567Z,166.77
2023-03-29T07:08:15.377Z,165.02
2023-03-29T07:10:54.206Z,186.65
2023-03-29T07:13:21.103Z,169.23
2023-03-29T07:15:49.630Z,169.10
2023-03-29T07:18:22.119Z,165.57
2023-03-29T07:20:52.058Z,168.90
2023-03-29T07:23:19.457Z,172.65
2023-03-29T07:25:47.650Z,179.35
2023-03-29T07:28:14.676Z,168.55
2023-03-29T07:30:41.474Z,167.05
2023-03-29T07:33:12.638Z,166.63
2023-03-29T07:35:52.807Z,168.32
2023-03-29T07:38:20.546Z,163.13
2023-03-29T07:40:54.517Z,172.18
2023-03-29T07:43:44.883Z,165.68
2023-03-29T07:46:14.246Z,165.55
2023-03-29T07:48:41.393Z,163.30
2023-03-29T07:51:11.974Z,164.38
2023-03-29T07:53:50.018Z,167.43
2023-03-29T07:56:36.065Z,168.88
2023-03-29T07:59:11.914Z,165.45
2023-03-29T08:01:41.201Z,168.90
2023-03-29T08:04:31.261Z,167.70
2023-03-29T08:07:21.345Z,165.93
2023-03-29T08:09:54.222Z,163.65
2023-03-29T08:12:29.657Z,167.57
2023-03-29T08:14:58.030Z,166.32
2023-03-29T08:17:29.572Z,169.48
2023-03-29T08:19:58.058Z,167.82
2023-03-29T08:22:26.504Z,169.82
2023-03-29T08:25:07.017Z,164.52
2023-03-29T08:27:39.090Z,168.10
2023-03-29T08:30:09.557Z,167.02
2023-03-29T08:32:39.228Z,166.25
2023-03-29T08:35:09.728Z,166.70
2023-03-29T08:37:45.957Z,168.73
2023-03-29T08:40:21.523Z,166.07
2023-03-29T08:43:34.852Z,170.18
2023-03-29T08:46:35.908Z,166.38
2023-03-29T08:49:21.147Z,166.43
2023-03-29T08:51:53.136Z,165.90
2023-03-29T08:54:26.871Z,165.43
2023-03-29T08:57:22.063Z,169.23
2023-03-29T08:59:58.476Z,164.30
2023-03-29T09:02:27.817Z,170.73
2023-03-29T09:05:08.726Z,166.95
2023-03-29T09:07:44.503Z,168.05
2023-03-29T09:10:16.795Z,167.70
2023-03-29T09:12:58.669Z,175.27
2023-03-29T09:15:31.036Z,174.23
2023-03-29T09:18:32.941Z,169.30
2023-03-29T09:21:04.439Z,168.80
2023-03-29T09:23:49.137Z,172.15
2023-03-29T09:26:40.196Z,182.40
2023-03-29T09:29:37.476Z,169.50
2023-03-29T09:32:16.960Z,174.73
2023-03-29T09:34:47.743Z,170.77
2023-03-29T09:37:25.449Z,171.75
2023-03-29T09:39:53.323Z,171.52
2023-03-29T09:42:29.237Z,170.70
2023-03-29T09:45:08.388Z,168.45
2023-03-29T09:47:47.803Z,167.95
2023-03-29T09:50:30.056Z,172.63
2023-03-29T09:52:59.420Z,169.98
2023-03-29T09:55:31.305Z,171.48
2023-03-29T09:58:14.897Z,171.48
2023-03-29T10:00:46.188Z,171.90
2023-03-29T10:03:19.140Z,172.88
2023-03-29T10:05:54.575Z,171.23
2023-03-29T10:08:27.302Z,172.93
2023-03-29T10:10:58.405Z,173.07
2023-03-29T10:13:30.626Z,172.48
2023-03-29T10:16:02.334Z,172.85
2023-03-29T10:18:30.982Z,171.68
2023-03-29T10:21:03.725Z,170.40
2023-03-29T10:23:32.546Z,174.15
2023-03-29T10:26:00.609Z,171.77
2023-03-29T10:28:30.983Z,172.68
2023-03-29T10:30:59.892Z,170.07
2023-03-29T10:33:31.292Z,169.90
2023-03-29T10:38:29.458Z,168.73
2023-03-29T10:41:04.821Z,171.48
2023-03-29T10:43:38.553Z,175.98
2023-03-29T10:46:08.899Z,172.63
2023-03-29T10:48:36.210Z,175.73
2023-03-29T10:51:06.024Z,167.90
2023-03-29T10:53:35.198Z,173.57
2023-03-29T10:56:23.016Z,173.57
2023-03-29T10:59:08.667Z,171.00
2023-03-29T11:01:44.852Z,174.52
2023-03-29T11:04:34.726Z,172.63
2023-03-29T11:07:22.760Z,174.20
2023-03-29T11:09:59.390Z,173.13
2023-03-29T11:12:34.393Z,174.10
2023-03-29T11:15:15.033Z,174.27
2023-03-29T11:17:55.498Z,175.82
2023-03-29T11:20:32.904Z,175.07
2023-03-29T11:23:09.857Z,176.18
2023-03-29T11:25:46.375Z,178.13
2023-03-29T11:28:21.327Z,174.80
2023-03-29T11:30:57.492Z,177.32
2023-03-29T11:33:37.532Z,174.35
2023-03-29T11:36:12.707Z,180.93
2023-03-29T11:38:48.214Z,180.00
2023-03-29T11:41:18.643Z,173.43
2023-03-29T11:43:49.899Z,175.80
2023-03-29T11:48:53.908Z,173.77
2023-03-29T11:51:25.865Z,177.40
2023-03-29T11:54:01.793Z,176.82
2023-03-29T11:56:35.023Z,173.88
2023-03-29T11:59:07.538Z,184.55
2023-03-29T12:01:41.324Z,185.07
2023-03-29T12:04:14.955Z,179.45
2023-03-29T12:06:50.682Z,180.98
2023-03-29T12:09:27.586Z,175.23
2023-03-29T12:12:01.906Z,179.60
2023-03-29T12:14:38.251Z,177.95
2023-03-29T12:17:12.615Z,175.60
2023-03-29T12:19:44.572Z,177.82
2023-03-29T12:22:11.462Z,175.65
2023-03-29T12:27:22.255Z,180.90
2023-03-29T12:30:08.676Z,181.00
2023-03-29T12:32:48.792Z,176.20
2023-03-29T12:35:59.009Z,176.65
2023-03-29T12:38:48.154Z,179.73
2023-03-29T12:41:37.546Z,176.45
2023-03-29T12:44:36.813Z,177.35
2023-03-29T12:47:20.418Z,177.80
2023-03-29T12:49:55.667Z,179.35
2023-03-29T12:52:27.341Z,178.75
2023-03-29T12:54:57.360Z,175.85
2023-03-29T12:57:28.162Z,182.23
2023-03-29T12:59:56.402Z,177.63
2023-03-29T13:02:35.272Z,178.88
2023-03-29T13:05:05.613Z,176.00
2023-03-29T13:07:47.169Z,176.40
2023-03-29T13:13:11.232Z,175.98
2023-03-29T13:15:39.305Z,177.65
2023-03-29T13:18:20.431Z,177.25
2023-03-29T13:20:59.111Z,180.68
2023-03-29T13:23:36.438Z,177.32
2023-03-29T13:26:34.030Z,183.93
2023-03-29T13:29:17.514Z,179.95
2023-03-29T13:31:50.397Z,182.07
2023-03-29T13:34:31.322Z,180.25
2023-03-29T13:37:08.904Z,180.65
2023-03-29T13:39:36.984Z,188.35
2023-03-29T13:42:21.669Z,179.30
2023-03-29T13:44:51.491Z,184.02
2023-03-29T13:47:58.691Z,180.57
2023-03-29T13:50:37.122Z,183.18
2023-03-29T13:53:13.834Z,181.65
2023-03-29T13:55:48.126Z,183.00
2023-03-29T13:58:27.361Z,182.90
2023-03-29T14:01:00.554Z,179.88
2023-03-29T14:03:30.141Z,180.52
2023-03-29T14:06:00.508Z,181.75
2023-03-29T14:08:32.015Z,181.68
2023-03-29T14:11:02.251Z,179.52
2023-03-29T14:13:29.937Z,185.52
2023-03-29T14:16:02.975Z,180.02
2023-03-29T14:18:33.996Z,180.25
2023-03-29T14:21:01.879Z,180.48
2023-03-29T14:23:33.219Z,180.85
2023-03-29T14:28:33.170Z,177.93
2023-03-29T14:30:59.960Z,179.10
2023-03-29T14:33:28.817Z,180.45
2023-03-29T14:35:57.197Z,180.90
2023-03-29T14:38:27.067Z,182.73
2023-03-29T14:41:00.154Z,180.65
2023-03-29T14:43:30.512Z,183.93
2023-03-29T14:45:57.703Z,183.60
2023-03-29T14:48:25.033Z,180.30
2023-03-29T14:50:52.483Z,182.43
2023-03-29T14:53:21.541Z,183.88
2023-03-29T14:55:51.734Z,183.63
2023-03-29T14:58:23.712Z,185.73
2023-03-29T15:00:51.869Z,186.05
2023-03-29T15:03:22.780Z,184.85
2023-03-29T15:05:54.031Z,185.32
2023-03-29T15:08:30.916Z,183.43
2023-03-29T15:10:58.270Z,186.18
2023-03-29T15:13:27.524Z,186.68
2023-03-29T15:15:59.146Z,199.80
2023-03-29T15:18:31.551Z,184.60
2023-03-29T15:20:59.090Z,187.30
2023-03-29T15:23:26.663Z,186.73
2023-03-29T15:25:57.054Z,185.40
2023-03-29T15:28:29.191Z,187.60
2023-03-29T15:31:07.885Z,182.32
2023-03-29T15:33:37.636Z,186.00
2023-03-29T15:36:06.818Z,186.05
2023-03-29T15:38:43.282Z,186.65
2023-03-29T15:41:13.572Z,186.25
2023-03-29T15:43:42.373Z,185.73
2023-03-29T15:46:11.476Z,185.93
2023-03-29T15:48:38.545Z,183.95
2023-03-29T15:51:06.897Z,187.68
2023-03-29T15:53:35.093Z,186.43
2023-03-29T15:56:05.436Z,185.73
2023-03-29T15:58:34.666Z,193.25
2023-03-29T16:01:13.261Z,185.73
2023-03-29T16:03:40.660Z,189.40
2023-03-29T16:06:10.717Z,183.02
2023-03-29T16:08:37.692Z,189.68
2023-03-29T16:11:06.786Z,184.82
2023-03-29T16:13:33.811Z,197.10
2023-03-29T16:16:00.841Z,191.02
2023-03-29T16:18:49.518Z,186.82
2023-03-29T16:21:18.761Z,187.15
2023-03-29T16:23:46.481Z,195.82
2023-03-29T16:26:14.819Z,188.75
2023-03-29T16:28:42.145Z,188.23
2023-03-29T16:31:10.975Z,186.60
2023-03-29T16:33:38.109Z,185.38
2023-03-29T16:36:08.042Z,185.23
2023-03-29T16:38:35.095Z,185.27
2023-03-29T16:41:02.661Z,188.82
2023-03-29T16:43:29.621Z,202.82
2023-03-29T16:45:57.046Z,188.13
2023-03-29T16:48:24.024Z,184.68
2023-03-29T16:50:51.340Z,185.38
2023-03-29T16:53:19.942Z,193.00
2023-03-29T16:55:47.254Z,186.95
2023-03-29T16:58:15.586Z,184.15
2023-03-29T17:00:44.429Z,184.52
2023-03-29T17:03:13.579Z,186.10
2023-03-29T17:05:42.540Z,188.07
2023-03-29T17:08:10.242Z,190.77
2023-03-29T17:10:39.608Z,190.20
2023-03-29T17:13:06.879Z,190.50
2023-03-29T17:15:34.820Z,189.05
2023-03-29T17:18:02.944Z,185.65
2023-03-29T17:20:30.057Z,191.30
2023-03-29T17:22:56.792Z,187.23
2023-03-29T17:25:24.967Z,185.27
2023-03-29T17:27:54.084Z,186.95
2023-03-29T17:30:21.197Z,186.82
2023-03-29T17:32:48.424Z,191.45
2023-03-29T17:35:16.034Z,188.57
2023-03-29T17:37:43.046Z,185.98
2023-03-29T17:40:14.343Z,186.85
2023-03-29T17:45:11.519Z,187.18
2023-03-29T17:47:39.048Z,187.82
2023-03-29T17:50:07.641Z,184.85
2023-03-29T17:52:35.982Z,187.00
2023-03-29T17:55:03.234Z,189.32
2023-03-29T17:57:30.494Z,186.73
2023-03-29T17:59:57.278Z,186.68
2023-03-29T18:02:25.778Z,189.00
2023-03-29T18:04:52.868Z,187.60
2023-03-29T18:07:19.820Z,186.55
2023-03-29T18:09:46.759Z,190.40
2023-03-29T18:12:13.824Z,187.93
2023-03-29T18:14:40.765Z,191.10
2023-03-29T18:17:07.612Z,189.23
2023-03-29T18:19:36.358Z,199.23
2023-03-29T18:22:04.133Z,191.60
2023-03-29T18:24:31.272Z,194.02
2023-03-29T18:26:58.073Z,188.15
2023-03-29T18:32:12.232Z,188.02
2023-03-29T18:34:40.460Z,191.90
2023-03-29T18:37:27.429Z,189.18
2023-03-29T18:39:54.767Z,189.57
2023-03-29T18:42:21.931Z,191.55
2023-03-29T18:44:49.324Z,194.48
2023-03-29T18:47:18.229Z,190.32
2023-03-29T18:49:47.304Z,192.38
2023-03-29T18:52:34.412Z,191.70
2023-03-29T18:55:01.467Z,191.30
2023-03-29T18:57:28.339Z,191.63
2023-03-29T18:59:55.483Z,191.82
2023-03-29T19:02:22.331Z,191.27
2023-03-29T19:04:50.877Z,190.93
2023-03-29T19:07:17.974Z,192.82
2023-03-29T19:09:46.016Z,195.13
2023-03-29T19:12:12.822Z,201.95
2023-03-29T19:14:39.947Z,209.20
2023-03-29T19:17:06.755Z,208.10
2023-03-29T19:19:33.705Z,199.75
2023-03-29T19:22:02.205Z,198.63
2023-03-29T19:24:29.171Z,198.27
2023-03-29T19:26:56.683Z,196.10
2023-03-29T19:29:23.514Z,214.15
2023-03-29T19:31:51.930Z,193.45
2023-03-29T19:34:21.281Z,197.93
2023-03-29T19:36:48.383Z,199.27
2023-03-29T19:39:16.811Z,193.30
2023-03-29T19:41:43.897Z,193.90
2023-03-29T19:44:11.042Z,197.25
2023-03-29T19:46:39.003Z,197.35
2023-03-29T19:49:06.214Z,195.43
2023-03-29T19:51:32.971Z,197.73
2023-03-29T19:54:01.604Z,190.30
2023-03-29T19:56:30.503Z,192.90
2023-03-29T19:58:57.285Z,194.10
2023-03-29T20:01:27.103Z,193.68
2023-03-29T20:03:55.430Z,191.55
2023-03-29T20:06:22.296Z,195.98
2023-03-29T20:08:51.456Z,191.00
2023-03-29T20:11:23.657Z,197.98
2023-03-29T20:13:52.261Z,197.43
2023-03-29T20:16:19.620Z,196.40
2023-03-29T20:18:46.722Z,194.38
2023-03-29T20:21:17.482Z,191.93
2023-03-29T20:23:44.634Z,196.68
2023-03-29T20:26:11.667Z,190.93
2023-03-29T20:28:38.881Z,196.18
2023-03-29T20:31:11.016Z,191.63
2023-03-29T20:36:26.841Z,197.77
2023-03-29T20:38:56.205Z,194.80
2023-03-29T20:41:23.225Z,192.80
2023-03-29T20:43:58.358Z,190.02
2023-03-29T20:46:33.763Z,196.02
2023-03-29T20:49:01.286Z,192.10
2023-03-29T20:51:30.365Z,195.70
2023-03-29T20:54:04.772Z,192.35
2023-03-29T20:56:33.891Z,197.68
2023-03-29T20:59:01.072Z,189.77
2023-03-29T21:01:30.206Z,192.27
2023-03-29T21:03:57.179Z,199.32
2023-03-29T21:06:24.392Z,196.20
2023-03-29T21:08:52.561Z,192.05
2023-03-29T21:11:20.253Z,196.43
2023-03-29T21:13:47.408Z,193.55
2023-03-29T21:16:14.480Z,199.15
2023-03-29T21:18:43.394Z,194.23
2023-03-29T21:21:11.609Z,194.85
2023-03-29T21:23:39.482Z,194.85
2023-03-29T21:26:07.826Z,196.30
2023-03-29T21:28:34.972Z,195.02
2023-03-29T21:31:04.675Z,199.85
2023-03-29T21:33:31.992Z,196.45
2023-03-29T21:36:00.874Z,196.35
2023-03-29T21:38:28.659Z,197.48
2023-03-29T21:40:55.503Z,193.85
2023-03-29T21:43:22.471Z,198.32
2023-03-29T21:45:50.320Z,194.52
2023-03-29T21:48:17.663Z,192.45
2023-03-29T21:50:47.993Z,196.48
2023-03-29T21:53:16.246Z,197.40
2023-03-29T21:55:43.036Z,200.30
2023-03-29T21:58:09.922Z,195.77
2023-03-29T22:00:36.839Z,193.52
2023-03-29T22:03:04.100Z,196.60
2023-03-29T22:05:31.210Z,195.27
2023-03-29T22:07:58.708Z,193.38
2023-03-29T22:10:27.357Z,195.00
2023-03-29T22:12:54.271Z,193.93
2023-03-29T22:15:21.050Z,193.70
2023-03-29T22:17:48.526Z,193.38
2023-03-29T22:20:15.764Z,191.60
2023-03-29T22:22:45.236Z,194.13
2023-03-29T22:25:12.718Z,190.95
2023-03-29T22:27:42.518Z,197.15
2023-03-29T22:30:10.930Z,208.73
2023-03-29T22:32:37.820Z,198.35
2023-03-29T22:35:06.394Z,194.43
2023-03-29T22:37:33.363Z,194.57
2023-03-29T22:40:00.220Z,198.00
2023-03-29T22:42:27.022Z,195.30
2023-03-29T22:44:55.425Z,192.63
2023-03-29T22:47:22.313Z,196.05
2023-03-29T22:49:49.176Z,199.32
2023-03-29T22:52:16.169Z,194.43
2023-03-29T22:54:42.982Z,194.13
2023-03-29T22:57:09.828Z,198.55
2023-03-29T22:59:36.738Z,200.10
2023-03-29T23:02:05.141Z,195.15
2023-03-29T23:04:32.269Z,194.52
2023-03-29T23:07:00.245Z,194.70
2023-03-29T23:09:27.013Z,197.30
2023-03-29T23:11:53.878Z,202.50
2023-03-29T23:14:20.661Z,193.38
2023-03-29T23:16:47.489Z,196.05
2023-03-29T23:19:15.861Z,196.77
2023-03-29T23:21:42.644Z,195.07
2023-03-29T23:24:09.445Z,194.13
2023-03-29T23:26:37.604Z,196.90
2023-03-29T23:29:04.495Z,199.88
2023-03-29T23:31:33.758Z,196.18
2023-03-29T23:34:00.740Z,194.80
2023-03-29T23:36:31.485Z,193.85
2023-03-29T23:38:59.618Z,194.32
2023-03-29T23:41:30.623Z,196.20
2023-03-29T23:43:57.861Z,194.38
2023-03-29T23:46:27.502Z,198.05
2023-03-29T23:48:54.615Z,197.10
2023-03-29T23:51:28.976Z,196.75
2023-03-29T23:53:57.482Z,195.73
2023-03-29T23:56:24.483Z,197.25
2023-03-29T23:58:51.785Z,194.77
